Time;durP1;ratioP1;P1;durP2;ratioP2;P2;SDS_P1;SDS_P2;PMS_P1;PMS_P2;Temp;Humidity;BMP_temperature;BMP_pressure;BME280_temperature;BME280_humidity;BME280_pressure;Samples;Min_cycle;Max_cycle;Signal;HPM_P1;HPM_P2
2021/07/01 00:02:16;;;;;;;;;;;;;;;17.54;65.90;100040.41;1635932;86;20831;-72
2021/07/01 00:04:43;;;;;;;;;;;;;;;17.53;65.91;100035.65;1645488;86;20488;-72
2021/07/01 00:07:09;;;;;;;;;;;;;;;17.53;66.05;100031.73;1634836;86;20304;-72
2021/07/01 00:09:35;;;;;;;;;;;;;;;17.56;66.00;100036.41;1635054;86;20492;-72
2021/07/01 00:12:00;;;;;;;;;;;;;;;17.57;66.10;100033.72;1634905;86;20243;-72
2021/07/01 00:14:27;;;;;;;;;;;;;;;17.58;66.13;100035.40;1641293;85;20481;-73
2021/07/01 00:16:53;;;;;;;;;;;;;;;17.59;66.13;100041.02;1635830;86;20432;-73
2021/07/01 00:19:20;;;;;;;;;;;;;;;17.60;66.18;100033.55;1635746;86;20138;-72
2021/07/01 00:21:46;;;;;;;;;;;;;;;17.60;66.24;100034.86;1635938;86;20130;-72
2021/07/01 00:24:13;;;;;;;;;;;;;;;17.62;66.12;100031.70;1635835;86;20201;-72
2021/07/01 00:26:39;;;;;;;;;;;;;;;17.62;66.33;100030.39;1634498;86;20142;-72
2021/07/01 00:29:05;;;;;;;;;;;;;;;17.62;66.41;100034.77;1635811;86;20410;-72
2021/07/01 00:31:31;;;;;;;;;;;;;;;17.63;66.32;100037.77;1626717;86;20468;-73
2021/07/01 00:33:58;;;;;;;;;;;;;;;17.65;66.33;100035.91;1635391;86;20110;-73
2021/07/01 00:36:24;;;;;;;;;;;;;;;17.64;66.48;100032.45;1625159;86;20437;-73
2021/07/01 00:38:50;;;;;;;;;;;;;;;17.64;66.46;100028.53;1635933;86;20146;-72
2021/07/01 00:41:17;;;;;;;;;;;;;;;17.64;66.50;100019.84;1636062;86;20437;-72
2021/07/01 00:43:43;;;;;;;;;;;;;;;17.64;66.52;100026.38;1644088;86;20521;-72
2021/07/01 00:46:10;;;;;;;;;;;;;;;17.64;66.67;100032.45;1636057;86;20606;-73
2021/07/01 00:48:36;;;;;;;;;;;;;;;17.67;66.62;100029.70;1626783;87;20516;-73
2021/07/01 00:51:03;;;;;;;;;;;;;;;17.64;66.68;100024.61;1635745;86;20439;-73
2021/07/01 00:53:29;;;;;;;;;;;;;;;17.67;66.73;100032.32;1635984;86;20148;-73
2021/07/01 00:55:55;;;;;;;;;;;;;;;17.67;66.63;100029.70;1636099;86;20094;-73
2021/07/01 00:58:21;;;;;;;;;;;;;;;17.65;66.71;100031.56;1626428;86;20098;-73
2021/07/01 01:03:15;;;;;;;;;;;;;;;17.62;66.87;100034.31;1639085;86;20097;-73
2021/07/01 01:05:41;;;;;;;;;;;;;;;17.63;66.86;100032.54;1636482;86;20789;-73
2021/07/01 01:08:07;;;;;;;;;;;;;;;17.63;66.96;100036.46;1635932;86;20172;-73
2021/07/01 01:10:33;;;;;;;;;;;;;;;17.61;67.00;100038.31;1637911;86;20541;-73
2021/07/01 01:12:59;;;;;;;;;;;;;;;17.64;67.00;100041.61;1652956;86;20160;-73
2021/07/01 01:15:28;;;;;;;;;;;;;;;17.65;66.93;100029.38;1627911;86;20780;-72
2021/07/01 01:17:54;;;;;;;;;;;;;;;17.65;67.00;100034.61;1652974;85;20442;-72
2021/07/01 01:20:20;;;;;;;;;;;;;;;17.64;66.99;100038.99;1639317;86;20271;-72
2021/07/01 01:22:46;;;;;;;;;;;;;;;17.64;67.08;100031.61;1638678;86;20520;-73
2021/07/01 01:25:12;;;;;;;;;;;;;;;17.64;67.06;100036.84;1639401;86;20156;-73
2021/07/01 01:27:38;;;;;;;;;;;;;;;17.64;67.09;100035.07;1639641;86;20537;-73
2021/07/01 01:30:06;;;;;;;;;;;;;;;17.63;66.97;100030.77;1638830;86;20472;-73
2021/07/01 01:32:33;;;;;;;;;;;;;;;17.65;67.25;100036.80;1638832;86;20512;-73
2021/07/01 01:34:59;;;;;;;;;;;;;;;17.66;67.16;100038.48;1639165;86;20421;-73
2021/07/01 01:37:25;;;;;;;;;;;;;;;17.67;67.14;100031.02;1638829;86;20438;-73
2021/07/01 01:39:51;;;;;;;;;;;;;;;17.67;67.32;100033.63;1638918;86;20220;-72
2021/07/01 01:42:17;;;;;;;;;;;;;;;17.68;67.30;100032.67;1639039;86;20583;-72
2021/07/01 01:44:44;;;;;;;;;;;;;;;17.69;67.38;100032.20;1645883;86;20449;-73
2021/07/01 01:47:17;;;;;;;;;;;;;;;17.72;67.32;100033.34;1634366;86;20104;-73
2021/07/01 01:49:44;;;;;;;;;;;;;;;17.72;67.33;100026.81;1628898;86;20676;-72
2021/07/01 01:52:11;;;;;;;;;;;;;;;17.72;67.42;100028.96;1639324;86;20122;-72
2021/07/01 01:54:37;;;;;;;;;;;;;;;17.71;67.30;100032.50;1639362;86;20429;-73
2021/07/01 01:57:03;;;;;;;;;;;;;;;17.70;67.39;100026.89;1638828;86;20183;-73
2021/07/01 01:59:29;;;;;;;;;;;;;;;17.71;67.43;100024.66;1638941;86;20101;-73
2021/07/01 02:01:55;;;;;;;;;;;;;;;17.70;67.25;100021.66;1639020;86;20220;-73
2021/07/01 02:04:21;;;;;;;;;;;;;;;17.69;67.41;100016.52;1642394;86;20212;-73
2021/07/01 02:06:47;;;;;;;;;;;;;;;17.68;67.47;100013.06;1625427;86;21031;-72
2021/07/01 02:09:13;;;;;;;;;;;;;;;17.68;67.41;100008.30;1639051;86;20160;-72
2021/07/01 02:11:39;;;;;;;;;;;;;;;17.68;67.41;100001.30;1638666;86;20180;-72
2021/07/01 02:14:05;;;;;;;;;;;;;;;17.67;67.50;100000.95;1639124;86;20109;-73
2021/07/01 02:16:31;;;;;;;;;;;;;;;17.68;67.47;99995.22;1638870;86;20164;-73
2021/07/01 02:18:57;;;;;;;;;;;;;;;17.67;67.52;99993.10;1639245;86;20109;-72
2021/07/01 02:21:23;;;;;;;;;;;;;;;17.66;67.61;99988.80;1639194;86;20152;-73
2021/07/01 02:23:49;;;;;;;;;;;;;;;17.66;67.65;99987.49;1645920;86;20235;-73
2021/07/01 02:26:15;;;;;;;;;;;;;;;17.69;67.59;99985.98;1653186;85;20102;-73
2021/07/01 02:28:41;;;;;;;;;;;;;;;17.68;67.51;99986.91;1638697;86;20205;-73
2021/07/01 02:31:07;;;;;;;;;;;;;;;17.68;67.67;99982.98;1652924;85;20130;-73
2021/07/01 02:33:34;;;;;;;;;;;;;;;17.68;67.60;99981.68;1636092;86;20112;-73
2021/07/01 02:36:00;;;;;;;;;;;;;;;17.69;67.59;99982.06;1627169;86;20138;-73
2021/07/01 02:38:26;;;;;;;;;;;;;;;17.69;67.64;99983.37;1653235;85;20112;-73
2021/07/01 02:40:52;;;;;;;;;;;;;;;17.69;67.60;99979.45;1633718;86;20212;-73
2021/07/01 02:43:18;;;;;;;;;;;;;;;17.67;67.61;99966.95;1647706;86;20131;-73
2021/07/01 02:45:44;;;;;;;;;;;;;;;17.65;67.63;99968.81;1638966;87;20109;-72
2021/07/01 02:48:10;;;;;;;;;;;;;;;17.61;67.68;99969.87;1638772;86;20156;-72
2021/07/01 02:50:36;;;;;;;;;;;;;;;17.60;67.61;99973.41;1639374;86;20243;-73
2021/07/01 02:53:02;;;;;;;;;;;;;;;17.56;67.63;99971.05;1639203;86;20224;-72
2021/07/01 02:55:28;;;;;;;;;;;;;;;17.51;67.72;99967.38;1638814;86;20255;-73
2021/07/01 02:57:54;;;;;;;;;;;;;;;17.48;67.83;99967.09;1635964;86;20223;-72
2021/07/01 03:00:20;;;;;;;;;;;;;;;17.46;67.76;99974.63;1635597;86;20105;-72
2021/07/01 03:02:46;;;;;;;;;;;;;;;17.42;67.82;99978.34;1642089;86;20158;-72
2021/07/01 03:05:12;;;;;;;;;;;;;;;17.37;67.86;99986.42;1638733;86;20295;-72
2021/07/01 03:07:38;;;;;;;;;;;;;;;17.36;67.99;99991.27;1638629;86;20628;-72
2021/07/01 03:10:05;;;;;;;;;;;;;;;17.33;67.94;99997.12;1638945;86;20291;-72
2021/07/01 03:12:31;;;;;;;;;;;;;;;17.28;67.98;99997.38;1638561;86;20146;-72
2021/07/01 03:14:57;;;;;;;;;;;;;;;17.24;67.96;100006.30;1639035;86;20168;-72
2021/07/01 03:17:23;;;;;;;;;;;;;;;17.23;68.07;100006.38;1639135;86;20130;-72
2021/07/01 03:19:49;;;;;;;;;;;;;;;17.19;68.04;100000.01;1638793;86;20097;-72
2021/07/01 03:22:15;;;;;;;;;;;;;;;17.17;68.14;100007.08;1638128;86;20192;-72
2021/07/01 03:24:41;;;;;;;;;;;;;;;17.17;68.19;100008.39;1639201;86;20485;-72
2021/07/01 03:27:07;;;;;;;;;;;;;;;17.18;68.16;100013.16;1639105;86;20160;-72
2021/07/01 03:29:33;;;;;;;;;;;;;;;17.17;68.32;100017.53;1638804;86;20453;-73
2021/07/01 03:31:59;;;;;;;;;;;;;;;17.20;68.30;100019.98;1638937;86;20106;-72
2021/07/01 03:34:26;;;;;;;;;;;;;;;17.24;68.34;100018.05;1641220;86;20149;-72
2021/07/01 03:36:52;;;;;;;;;;;;;;;17.29;68.32;100016.05;1639257;86;20561;-72
2021/07/01 03:39:18;;;;;;;;;;;;;;;17.32;68.36;100020.27;1627573;86;20136;-72
2021/07/01 03:41:43;;;;;;;;;;;;;;;17.33;68.39;100010.20;1634538;86;20231;-72
2021/07/01 03:44:11;;;;;;;;;;;;;;;17.35;68.34;100007.88;1640998;86;20133;-72
2021/07/01 03:46:37;;;;;;;;;;;;;;;17.36;68.40;100012.19;1638627;86;20138;-72
2021/07/01 03:49:04;;;;;;;;;;;;;;;17.37;68.35;100017.79;1638734;86;20149;-72
2021/07/01 03:51:30;;;;;;;;;;;;;;;17.37;68.36;100026.94;1639018;86;20165;-72
2021/07/01 03:53:56;;;;;;;;;;;;;;;17.37;68.48;100030.02;1630510;86;20231;-72
2021/07/01 03:56:22;;;;;;;;;;;;;;;17.37;68.55;100030.86;1627276;86;21033;-72
2021/07/01 03:58:48;;;;;;;;;;;;;;;17.39;68.50;100030.78;1637573;86;20276;-72
2021/07/01 04:01:14;;;;;;;;;;;;;;;17.41;68.47;100036.77;1637915;86;20311;-72
2021/07/01 04:03:40;;;;;;;;;;;;;;;17.41;68.56;100026.31;1638858;86;20181;-72
2021/07/01 04:06:07;;;;;;;;;;;;;;;17.44;68.61;100022.23;1639033;86;20138;-72
2021/07/01 04:08:32;;;;;;;;;;;;;;;17.45;68.65;100022.14;1639263;86;21045;-73
2021/07/01 04:10:59;;;;;;;;;;;;;;;17.51;68.66;100023.59;1638946;86;20102;-73
2021/07/01 04:13:25;;;;;;;;;;;;;;;17.53;68.44;100034.80;1638621;86;20132;-73
2021/07/01 04:15:51;;;;;;;;;;;;;;;17.53;68.67;100040.03;1639260;86;20142;-73
2021/07/01 04:18:18;;;;;;;;;;;;;;;17.57;68.59;100039.41;1631134;86;20621;-72
2021/07/01 04:20:44;;;;;;;;;;;;;;;17.60;68.65;100037.94;1638898;86;20113;-72
2021/07/01 04:23:09;;;;;;;;;;;;;;;17.61;68.66;100032.63;1636234;86;20184;-72
2021/07/01 04:25:36;;;;;;;;;;;;;;;17.63;68.67;100033.38;1638276;85;20102;-72
2021/07/01 04:28:02;;;;;;;;;;;;;;;17.68;68.69;100019.59;1630576;84;559594;-72
2021/07/01 04:30:29;;;;;;;;;;;;;;;17.70;68.65;100020.36;1638890;86;20102;-72
2021/07/01 04:32:55;;;;;;;;;;;;;;;17.71;68.67;100022.05;1645115;86;20480;-73
2021/07/01 04:35:21;;;;;;;;;;;;;;;17.74;68.65;100016.64;1640392;86;20092;-73
2021/07/01 04:37:47;;;;;;;;;;;;;;;17.77;68.62;100019.55;1640135;86;20195;-72
2021/07/01 04:40:13;;;;;;;;;;;;;;;17.83;68.80;100025.76;1640279;86;20160;-73
2021/07/01 04:42:40;;;;;;;;;;;;;;;17.89;68.76;100024.11;1642860;86;20126;-73
2021/07/01 04:45:07;;;;;;;;;;;;;;;17.94;68.62;100026.47;1642600;85;20109;-73
2021/07/01 04:47:34;;;;;;;;;;;;;;;17.94;68.61;100023.86;1635099;86;20138;-72
2021/07/01 04:50:02;;;;;;;;;;;;;;;17.95;68.60;100018.54;1635806;86;20124;-72
2021/07/01 04:52:27;;;;;;;;;;;;;;;18.00;68.62;100015.20;1625312;86;20115;-72
2021/07/01 04:54:53;;;;;;;;;;;;;;;18.13;68.60;100013.59;1628239;86;20097;-72
2021/07/01 04:57:20;;;;;;;;;;;;;;;18.25;68.60;100018.55;1630139;86;20147;-73
2021/07/01 04:59:46;;;;;;;;;;;;;;;18.37;68.61;100020.48;1639192;87;20098;-73
2021/07/01 05:02:12;;;;;;;;;;;;;;;18.55;68.54;100026.89;1640730;86;20141;-73
2021/07/01 05:04:38;;;;;;;;;;;;;;;18.63;68.41;100032.56;1640353;86;20130;-72
2021/07/01 05:07:04;;;;;;;;;;;;;;;18.65;68.45;100039.86;1630467;87;20134;-72
2021/07/01 05:09:30;;;;;;;;;;;;;;;18.68;68.38;100030.52;1639758;86;20217;-73
2021/07/01 05:11:56;;;;;;;;;;;;;;;18.71;68.43;100031.64;1631643;86;20200;-73
2021/07/01 05:14:22;;;;;;;;;;;;;;;18.74;68.37;100030.97;1630280;87;20236;-72
2021/07/01 05:16:49;;;;;;;;;;;;;;;18.68;68.20;100033.98;1630357;86;20153;-72
2021/07/01 05:19:15;;;;;;;;;;;;;;;18.62;68.25;100036.95;1630556;87;20820;-73
2021/07/01 05:21:41;;;;;;;;;;;;;;;18.58;68.28;100042.42;1624105;86;20184;-73
2021/07/01 05:24:07;;;;;;;;;;;;;;;18.57;68.40;100045.51;1630626;87;20991;-73
2021/07/01 05:26:33;;;;;;;;;;;;;;;18.58;68.44;100045.89;1627220;87;20193;-72
2021/07/01 05:28:59;;;;;;;;;;;;;;;18.61;68.38;100040.97;1620763;88;20185;-73
2021/07/01 05:31:25;;;;;;;;;;;;;;;18.63;68.36;100044.34;1629829;87;20184;-73
2021/07/01 05:33:51;;;;;;;;;;;;;;;18.63;68.33;100037.80;1632150;87;20196;-73
2021/07/01 05:36:17;;;;;;;;;;;;;;;18.66;68.40;100038.93;1628931;87;20186;-73
2021/07/01 05:38:43;;;;;;;;;;;;;;;18.69;68.33;100042.67;1630215;86;20224;-73
2021/07/01 05:41:09;;;;;;;;;;;;;;;18.72;68.37;100037.23;1630158;86;20177;-73
2021/07/01 05:43:35;;;;;;;;;;;;;;;18.78;68.40;100042.95;1628546;86;20213;-73
2021/07/01 05:46:02;;;;;;;;;;;;;;;18.92;68.48;100044.76;1630218;87;20181;-73
2021/07/01 05:48:29;;;;;;;;;;;;;;;19.01;68.29;100040.28;1624608;86;20211;-73
2021/07/01 05:51:03;;;;;;;;;;;;;;;19.13;68.34;100032.98;1589277;88;20215;-73
2021/07/01 05:53:36;;;;;;;;;;;;;;;19.34;68.36;100034.74;1627878;87;20098;-72
2021/07/01 05:56:00;;;;;;;;;;;;;;;19.65;68.23;100043.38;1631659;87;20090;-73
2021/07/01 05:58:26;;;;;;;;;;;;;;;19.80;68.00;100037.98;1631411;87;20126;-73
2021/07/01 06:00:52;;;;;;;;;;;;;;;19.85;67.75;100042.94;1634889;86;20177;-73
2021/07/01 06:03:18;;;;;;;;;;;;;;;19.88;67.79;100042.73;1635449;86;20130;-73
2021/07/01 06:05:45;;;;;;;;;;;;;;;19.95;67.80;100051.91;1628980;86;20231;-73
2021/07/01 06:08:12;;;;;;;;;;;;;;;19.95;67.70;100055.00;1630381;86;20102;-73
2021/07/01 06:10:39;;;;;;;;;;;;;;;19.93;67.55;100052.95;1632390;86;20114;-73
2021/07/01 06:13:07;;;;;;;;;;;;;;;19.83;67.59;100054.84;1637614;86;20659;-73
2021/07/01 06:15:35;;;;;;;;;;;;;;;19.74;67.52;100069.03;1634532;86;20105;-72
2021/07/01 06:18:01;;;;;;;;;;;;;;;19.65;67.51;100070.45;1630976;86;20416;-72
2021/07/01 06:20:28;;;;;;;;;;;;;;;19.51;67.52;100065.21;1639036;86;20142;-73
2021/07/01 06:22:54;;;;;;;;;;;;;;;19.43;67.60;100072.67;1638678;86;20146;-73
2021/07/01 06:25:20;;;;;;;;;;;;;;;19.34;67.61;100074.54;1635883;86;20118;-73
2021/07/01 06:27:46;;;;;;;;;;;;;;;19.28;67.59;100078.38;1633892;86;20097;-73
2021/07/01 06:30:21;;;;;;;;;;;;;;;19.24;67.63;100078.19;1638986;86;20535;-73
2021/07/01 06:32:51;;;;;;;;;;;;;;;19.21;67.63;100082.80;1640213;86;20145;-72
2021/07/01 06:35:20;;;;;;;;;;;;;;;19.21;67.64;100072.31;1637776;86;20254;-72
2021/07/01 06:37:47;;;;;;;;;;;;;;;19.17;67.48;100069.88;1638042;86;20399;-72
2021/07/01 06:40:14;;;;;;;;;;;;;;;19.15;67.64;100066.50;1638791;86;20106;-72
2021/07/01 06:42:44;;;;;;;;;;;;;;;19.13;67.59;100071.46;1639982;86;20102;-72
2021/07/01 06:45:11;;;;;;;;;;;;;;;19.15;67.59;100077.45;1638648;86;20134;-72
2021/07/01 06:47:37;;;;;;;;;;;;;;;19.15;67.57;100073.52;1638596;86;20901;-72
2021/07/01 06:50:05;;;;;;;;;;;;;;;19.15;67.56;100074.36;1639193;86;20106;-72
2021/07/01 06:52:31;;;;;;;;;;;;;;;19.20;67.63;100072.78;1638202;86;20418;-72
2021/07/01 06:54:58;;;;;;;;;;;;;;;19.28;67.70;100073.59;1639128;86;20094;-72
2021/07/01 06:57:25;;;;;;;;;;;;;;;19.47;67.71;100064.98;1639161;86;20138;-72
2021/07/01 06:59:52;;;;;;;;;;;;;;;19.59;67.54;100076.07;1631536;86;21213;-72
2021/07/01 07:02:18;;;;;;;;;;;;;;;19.76;67.50;100076.30;1634939;86;20143;-72
2021/07/01 07:04:44;;;;;;;;;;;;;;;20.03;67.57;100081.13;1642292;86;20267;-72
2021/07/01 07:07:10;;;;;;;;;;;;;;;20.36;67.47;100083.35;1638754;86;20134;-72
2021/07/01 07:09:38;;;;;;;;;;;;;;;20.65;67.27;100089.84;1639031;86;20105;-73
2021/07/01 07:12:04;;;;;;;;;;;;;;;20.75;67.01;100083.88;1629574;86;20110;-72
2021/07/01 07:14:30;;;;;;;;;;;;;;;20.81;66.97;100081.27;1624293;87;20422;-72
2021/07/01 07:16:57;;;;;;;;;;;;;;;20.85;66.90;100079.28;1624226;87;20287;-72
2021/07/01 07:19:23;;;;;;;;;;;;;;;20.83;66.66;100076.77;1624426;87;20138;-72
2021/07/01 07:21:52;;;;;;;;;;;;;;;20.75;66.73;100078.62;1624588;87;20142;-72
2021/07/01 07:24:20;;;;;;;;;;;;;;;20.66;66.72;100070.03;1621500;87;21163;-72
2021/07/01 07:26:50;;;;;;;;;;;;;;;20.65;66.77;100067.50;1624104;87;20114;-72
2021/07/01 07:29:17;;;;;;;;;;;;;;;20.59;66.63;100072.69;1624352;87;20434;-72
2021/07/01 07:31:45;;;;;;;;;;;;;;;20.49;66.67;100067.67;1623243;87;20106;-72
2021/07/01 07:34:10;;;;;;;;;;;;;;;20.46;66.76;100077.06;1625077;87;20143;-72
2021/07/01 07:36:36;;;;;;;;;;;;;;;20.39;66.68;100072.68;1624475;87;20172;-72
2021/07/01 07:39:05;;;;;;;;;;;;;;;20.34;66.70;100076.52;1624309;87;20184;-72
2021/07/01 07:41:31;;;;;;;;;;;;;;;20.32;66.65;100088.90;1624012;87;20422;-72
2021/07/01 07:43:57;;;;;;;;;;;;;;;20.28;66.62;100083.00;1622918;87;20103;-72
2021/07/01 07:46:25;;;;;;;;;;;;;;;20.26;66.53;100075.73;1624243;87;20413;-72
2021/07/01 07:48:51;;;;;;;;;;;;;;;20.20;66.50;100076.59;1624246;87;20114;-74
2021/07/01 07:51:18;;;;;;;;;;;;;;;20.08;66.42;100082.16;1624256;87;20169;-74
2021/07/01 07:53:47;;;;;;;;;;;;;;;20.03;66.49;100082.45;1609349;88;20831;-74
2021/07/01 07:56:15;;;;;;;;;;;;;;;20.03;66.55;100075.89;1626652;87;20423;-74
2021/07/01 07:58:44;;;;;;;;;;;;;;;20.10;66.58;100077.18;1624452;87;20127;-74
2021/07/01 08:01:11;;;;;;;;;;;;;;;20.23;66.56;100078.55;1624435;87;20433;-74
2021/07/01 08:03:41;;;;;;;;;;;;;;;20.65;67.07;100084.11;1624402;87;20097;-74
2021/07/01 08:06:08;;;;;;;;;;;;;;;21.10;66.33;100085.42;1624616;87;20122;-74
2021/07/01 08:08:44;;;;;;;;;;;;;;;21.19;65.99;100080.48;1624521;87;20563;-75
2021/07/01 08:11:11;;;;;;;;;;;;;;;21.29;66.04;100089.45;1624915;86;20352;-75
2021/07/01 08:13:38;;;;;;;;;;;;;;;21.39;65.84;100090.48;1631178;86;20114;-75
2021/07/01 08:16:05;;;;;;;;;;;;;;;21.50;65.75;100091.05;1630966;86;20110;-75
2021/07/01 08:18:40;;;;;;;;;;;;;;;21.59;65.78;100085.15;1631317;86;20126;-75
2021/07/01 08:21:08;;;;;;;;;;;;;;;21.69;65.76;100083.08;1623286;87;20135;-75
2021/07/01 08:23:35;;;;;;;;;;;;;;;21.86;65.73;100088.44;1630390;87;20106;-75
2021/07/01 08:26:02;;;;;;;;;;;;;;;22.05;65.61;100081.42;1621827;86;20146;-75
2021/07/01 08:28:29;;;;;;;;;;;;;;;22.10;65.34;100088.52;1622148;86;20148;-75
2021/07/01 08:30:57;;;;;;;;;;;;;;;22.08;65.34;100087.30;1626768;86;20126;-75
2021/07/01 08:33:27;;;;;;;;;;;;;;;22.17;65.25;100085.80;1631662;86;20090;-75
2021/07/01 08:35:57;;;;;;;;;;;;;;;22.29;65.30;100091.98;1624363;85;20152;-75
2021/07/01 08:38:23;;;;;;;;;;;;;;;22.33;64.90;100094.27;1611012;87;20127;-75
2021/07/01 08:40:49;;;;;;;;;;;;;;;22.30;65.04;100087.91;1631051;86;20097;-75
2021/07/01 08:43:19;;;;;;;;;;;;;;;22.26;64.75;100104.05;1636829;86;20092;-75
2021/07/01 08:46:11;;;;;;;;;;;;;;;22.18;64.77;100096.70;1629554;87;20450;-75
2021/07/01 08:49:03;;;;;;;;;;;;;;;22.16;64.69;100092.50;1619045;86;20475;-75
2021/07/01 08:51:40;;;;;;;;;;;;;;;22.35;64.79;100098.11;1630409;86;20114;-76
2021/07/01 08:54:15;;;;;;;;;;;;;;;22.45;64.54;100095.98;1623443;86;20110;-76
2021/07/01 08:56:42;;;;;;;;;;;;;;;22.44;64.39;100099.56;1630802;86;20131;-76
2021/07/01 08:59:09;;;;;;;;;;;;;;;22.62;64.39;100108.39;1631055;87;20142;-75
2021/07/01 09:01:41;;;;;;;;;;;;;;;22.65;64.00;100101.58;1629891;86;20114;-75
2021/07/01 09:04:14;;;;;;;;;;;;;;;22.59;63.98;100105.51;1630625;86;20110;-75
2021/07/01 09:06:41;;;;;;;;;;;;;;;22.45;63.77;100103.05;1630658;86;20106;-77
2021/07/01 09:09:09;;;;;;;;;;;;;;;22.42;63.93;100108.53;1630741;86;20438;-77
2021/07/01 09:11:37;;;;;;;;;;;;;;;22.43;63.84;100107.11;1626207;86;20382;-74
2021/07/01 09:14:06;;;;;;;;;;;;;;;22.46;63.86;100110.84;1618603;88;20157;-73
2021/07/01 09:16:34;;;;;;;;;;;;;;;22.46;63.64;100116.11;1617080;88;20176;-73
2021/07/01 09:19:01;;;;;;;;;;;;;;;22.45;63.67;100118.37;1622527;88;20110;-73
2021/07/01 09:21:27;;;;;;;;;;;;;;;22.41;63.65;100124.82;1621070;88;20134;-73
2021/07/01 09:23:54;;;;;;;;;;;;;;;22.38;63.43;100120.25;1620755;88;20109;-73
2021/07/01 09:26:22;;;;;;;;;;;;;;;22.34;63.41;100123.61;1608428;88;20114;-73
2021/07/01 09:28:49;;;;;;;;;;;;;;;22.30;63.40;100131.85;1624354;88;20323;-73
2021/07/01 09:31:19;;;;;;;;;;;;;;;22.21;63.23;100129.88;1614002;88;20110;-74
2021/07/01 09:33:47;;;;;;;;;;;;;;;22.22;63.26;100128.45;1607335;88;20135;-74
2021/07/01 09:36:14;;;;;;;;;;;;;;;22.20;63.14;100131.67;1622979;87;20106;-76
2021/07/01 09:38:46;;;;;;;;;;;;;;;22.16;63.19;100134.16;1623216;88;20094;-77
2021/07/01 09:41:13;;;;;;;;;;;;;;;22.18;63.20;100132.25;1621915;88;20421;-76
2021/07/01 09:43:40;;;;;;;;;;;;;;;22.16;62.98;100130.20;1627689;87;20163;-76
2021/07/01 09:46:11;;;;;;;;;;;;;;;22.05;62.81;100137.55;1622886;88;20102;-76
2021/07/01 09:48:36;;;;;;;;;;;;;;;22.00;62.92;100129.58;1623548;87;20102;-73
2021/07/01 09:51:05;;;;;;;;;;;;;;;22.07;63.05;100130.39;1622121;88;20106;-74
2021/07/01 09:53:33;;;;;;;;;;;;;;;22.17;62.78;100132.37;1622522;88;20090;-74
2021/07/01 09:56:05;;;;;;;;;;;;;;;22.21;62.79;100133.83;1608700;88;20722;-74
2021/07/01 09:58:32;;;;;;;;;;;;;;;22.10;62.46;100135.44;1605815;87;20185;-74
2021/07/01 10:00:58;;;;;;;;;;;;;;;;;;1609884;88;20090;-74
2021/07/01 10:03:24;;;;;;;;;;;;;;;21.67;62.43;100138.92;1622819;88;20807;-74
2021/07/01 10:05:50;;;;;;;;;;;;;;;21.59;62.62;100141.25;1620639;88;20134;-74
2021/07/01 10:08:16;;;;;;;;;;;;;;;21.59;62.68;100134.67;1607526;87;20212;-74
2021/07/01 10:10:47;;;;;;;;;;;;;;;21.80;62.90;100128.39;1621438;87;20445;-74
2021/07/01 10:13:13;;;;;;;;;;;;;;;22.12;62.81;100122.16;1622342;87;20098;-73
2021/07/01 10:15:40;;;;;;;;;;;;;;;22.42;62.64;100125.66;1609293;87;20141;-74
2021/07/01 10:18:12;;;;;;;;;;;;;;;22.66;62.29;100117.28;1651392;86;20442;-74
2021/07/01 10:20:41;;;;;;;;;;;;;;;22.71;62.03;100129.64;1636557;86;20121;-73
2021/07/01 10:23:27;;;;;;;;;;;;;;;22.68;62.04;100138.25;1651921;85;20437;-73
2021/07/01 10:25:55;;;;;;;;;;;;;;;22.73;61.98;100136.95;1634151;86;20109;-73
2021/07/01 10:28:23;;;;;;;;;;;;;;;22.94;61.79;100129.25;1634947;86;20429;-74
2021/07/01 10:30:58;;;;;;;;;;;;;;;23.11;61.68;100134.58;1638881;86;20133;-74
2021/07/01 10:33:35;;;;;;;;;;;;;;;23.27;61.58;100140.84;1617905;88;20214;-74
2021/07/01 10:36:04;;;;;;;;;;;;;;;23.24;61.25;100137.12;1626109;86;20237;-73
2021/07/01 10:38:43;;;;;;;;;;;;;;;23.10;61.24;100136.38;1632695;86;20469;-73
2021/07/01 10:41:10;;;;;;;;;;;;;;;23.10;61.42;100152.20;1635876;86;20169;-74
2021/07/01 10:43:42;;;;;;;;;;;;;;;23.12;61.19;100153.40;1637836;86;20168;-74
2021/07/01 10:46:43;;;;;;;;;;;;;;;22.99;61.06;100149.52;1634901;86;20409;-74
2021/07/01 10:49:12;;;;;;;;;;;;;;;22.89;60.97;100152.96;1638235;87;20425;-74
2021/07/01 10:51:41;;;;;;;;;;;;;;;22.72;61.15;100148.94;1630269;86;20398;-74
2021/07/01 10:54:13;;;;;;;;;;;;;;;22.70;61.15;100160.91;1614294;86;20449;-74
2021/07/01 10:56:41;;;;;;;;;;;;;;;22.69;61.14;100163.66;1637671;86;20401;-74
2021/07/01 10:59:07;;;;;;;;;;;;;;;22.67;61.02;100163.77;1636399;86;20134;-74
2021/07/01 11:01:35;;;;;;;;;;;;;;;22.68;61.03;100168.09;1638535;86;20415;-74
2021/07/01 11:04:13;;;;;;;;;;;;;;;22.73;61.02;100170.38;1635354;86;20113;-74
2021/07/01 11:06:43;;;;;;;;;;;;;;;22.72;60.84;100172.18;1635915;86;20437;-73
2021/07/01 11:09:12;;;;;;;;;;;;;;;22.68;60.71;100168.56;1638007;86;20448;-73
2021/07/01 11:11:41;;;;;;;;;;;;;;;22.73;60.90;100172.55;1637415;85;37493;-73
2021/07/01 11:14:13;;;;;;;;;;;;;;;22.80;60.75;100166.85;1638028;86;20425;-73
2021/07/01 11:16:41;;;;;;;;;;;;;;;22.82;60.50;100180.28;1638157;87;20692;-73
2021/07/01 11:19:13;;;;;;;;;;;;;;;22.71;60.34;100186.31;1637976;87;20574;-74
2021/07/01 11:21:47;;;;;;;;;;;;;;;22.51;60.28;100188.70;1634849;86;20134;-72
2021/07/01 11:24:21;;;;;;;;;;;;;;;22.36;60.46;100199.39;1633522;86;20607;-74
2021/07/01 11:26:52;;;;;;;;;;;;;;;22.33;60.52;100194.38;1631792;86;20537;-74
2021/07/01 11:29:21;;;;;;;;;;;;;;;22.37;60.66;100200.23;1637964;86;20548;-73
2021/07/01 11:31:49;;;;;;;;;;;;;;;22.45;60.60;100204.01;1604616;88;20549;-73
2021/07/01 11:34:17;;;;;;;;;;;;;;;22.58;60.66;100214.52;1638948;86;20101;-74
2021/07/01 11:36:52;;;;;;;;;;;;;;;22.72;60.54;100218.31;1626648;86;20449;-72
2021/07/01 11:39:28;;;;;;;;;;;;;;;22.86;60.22;100217.81;1637696;86;20454;-73
2021/07/01 11:42:01;;;;;;;;;;;;;;;22.85;60.12;100222.72;1636055;86;20677;-73
2021/07/01 11:44:28;;;;;;;;;;;;;;;22.84;60.17;100227.63;1639986;86;20122;-73
2021/07/01 11:46:54;;;;;;;;;;;;;;;22.81;60.19;100229.17;1619032;87;20142;-72
2021/07/01 11:49:21;;;;;;;;;;;;;;;22.84;60.28;100241.66;1630037;87;20523;-72
2021/07/01 11:51:47;;;;;;;;;;;;;;;22.91;60.30;100242.86;1635682;87;20917;-72
2021/07/01 11:54:13;;;;;;;;;;;;;;;22.99;60.20;100240.98;1636187;86;20268;-71
2021/07/01 11:56:55;;;;;;;;;;;;;;;23.07;59.98;100233.34;1636792;87;20574;-71
2021/07/01 11:59:23;;;;;;;;;;;;;;;23.21;60.11;100234.97;1636761;86;20634;-72
2021/07/01 12:01:49;;;;;;;;;;;;;;;23.32;59.90;100240.28;1638346;87;20366;-72
2021/07/01 12:04:17;;;;;;;;;;;;;;;23.35;59.70;100230.34;1633265;86;20827;-72
2021/07/01 12:06:46;;;;;;;;;;;;;;;23.43;59.87;100221.81;1636922;86;20533;-72
2021/07/01 12:09:13;;;;;;;;;;;;;;;23.56;59.73;100225.24;1635525;86;20595;-72
2021/07/01 12:12:04;;;;;;;;;;;;;;;23.67;59.55;100232.34;1639337;87;20565;-72
2021/07/01 12:14:34;;;;;;;;;;;;;;;23.74;59.48;100223.00;1526950;92;20119;-72
2021/07/01 12:16:59;;;;;;;;;;;;;;;23.75;59.33;100230.80;1598934;87;20122;-72
2021/07/01 12:19:49;;;;;;;;;;;;;;;23.77;59.39;100225.40;1636094;87;20454;-72
2021/07/01 12:22:46;;;;;;;;;;;;;;;23.83;59.41;100219.64;1631476;86;20108;-75
2021/07/01 12:25:17;;;;;;;;;;;;;;;23.85;59.22;100220.85;1627639;87;20460;-73
2021/07/01 12:27:43;;;;;;;;;;;;;;;23.87;59.06;100230.81;1627928;87;20840;-74
2021/07/01 12:30:09;;;;;;;;;;;;;;;23.86;59.13;100225.17;1629161;86;20748;-74
2021/07/01 12:32:36;;;;;;;;;;;;;;;23.91;59.03;100241.02;1638344;86;20420;-74
2021/07/01 12:35:38;;;;;;;;;;;;;;;23.81;58.76;100246.65;1630054;87;20994;-74
2021/07/01 12:38:12;;;;;;;;;;;;;;;23.66;58.66;100258.38;1622001;86;20105;-75
2021/07/01 12:40:55;;;;;;;;;;;;;;;23.34;58.72;100268.72;1635150;86;20146;-76
2021/07/01 12:43:51;;;;;;;;;;;;;;;23.04;58.74;100274.45;1623823;86;20102;-74
2021/07/01 12:46:45;;;;;;;;;;;;;;;22.88;58.97;100272.56;1635710;86;20749;-74